Time;durP1;ratioP1;P1;durP2;ratioP2;P2;SDS_P1;SDS_P2;PMS_P1;PMS_P2;Temp;Humidity;BMP_temperature;BMP_pressure;BME280_temperature;BME280_humidity;BME280_pressure;Samples;Min_cycle;Max_cycle;Signal;HPM_P1;HPM_P2
2023/03/30 00:00:00;;;;;;;1.10;0.80;;;6.80;99.90;;;;;;4987576;28;20050;-65
2023/03/30 00:02:29;;;;;;;1.50;1.00;;;6.90;99.90;;;;;;4990856;28;20026;-66
2023/03/30 00:05:01;;;;;;;4.10;1.05;;;6.90;99.90;;;;;;4989700;28;20030;-66
2023/03/30 00:07:29;;;;;;;2.47;0.98;;;6.90;99.90;;;;;;4975111;28;20525;-65
2023/03/30 00:09:55;;;;;;;1.67;1.10;;;6.90;99.90;;;;;;4983366;28;20050;-65
2023/03/30 00:12:21;;;;;;;1.65;1.05;;;7.00;99.90;;;;;;4985538;28;20486;-67
2023/03/30 00:14:48;;;;;;;1.45;1.20;;;7.10;99.90;;;;;;4989570;28;20042;-66
2023/03/30 00:17:13;;;;;;;2.92;1.23;;;7.20;99.90;;;;;;4986730;28;20038;-66
2023/03/30 00:19:39;;;;;;;1.95;1.45;;;7.20;99.90;;;;;;4990927;28;20425;-67
2023/03/30 00:22:08;;;;;;;1.65;1.20;;;7.20;99.90;;;;;;4987460;28;20038;-75
2023/03/30 00:24:34;;;;;;;1.38;0.85;;;7.30;99.90;;;;;;4981285;28;20137;-75
2023/03/30 00:27:00;;;;;;;1.70;1.38;;;7.30;99.90;;;;;;4985661;28;20041;-75
2023/03/30 00:29:26;;;;;;;2.35;1.40;;;7.30;99.90;;;;;;4984181;28;20058;-75
2023/03/30 00:31:52;;;;;;;2.72;1.70;;;7.30;99.90;;;;;;4988813;28;20038;-76
2023/03/30 00:34:18;;;;;;;3.83;1.90;;;7.30;99.90;;;;;;4988809;28;20041;-75
2023/03/30 00:36:45;;;;;;;1.95;1.73;;;7.30;99.90;;;;;;4989586;28;20045;-76
2023/03/30 00:39:12;;;;;;;2.85;2.17;;;7.40;99.90;;;;;;4991084;28;20038;-75
2023/03/30 00:41:38;;;;;;;3.53;2.00;;;7.40;99.90;;;;;;4991888;28;20034;-67
2023/03/30 00:44:45;;;;;;;3.83;2.30;;;7.40;99.90;;;;;;4972450;28;20042;-67
2023/03/30 00:47:11;;;;;;;5.88;2.60;;;7.40;99.90;;;;;;4981217;28;20133;-67
2023/03/30 00:49:38;;;;;;;6.53;3.03;;;7.40;99.90;;;;;;4986125;28;20810;-66
2023/03/30 00:52:04;;;;;;;4.00;2.50;;;7.50;99.90;;;;;;4988980;28;20740;-67
2023/03/30 00:54:29;;;;;;;4.63;2.80;;;7.50;99.90;;;;;;4986292;28;20053;-66
2023/03/30 00:56:55;;;;;;;4.75;2.45;;;7.50;99.90;;;;;;4988019;28;20971;-67
2023/03/30 00:59:21;;;;;;;3.08;2.15;;;7.40;99.90;;;;;;4981986;28;20061;-75
2023/03/30 01:01:48;;;;;;;6.38;3.08;;;7.40;99.90;;;;;;4984139;28;20042;-75
2023/03/30 01:04:18;;;;;;;6.90;3.10;;;7.40;99.90;;;;;;4982296;28;20568;-75
2023/03/30 01:06:45;;;;;;;3.85;2.45;;;7.30;99.90;;;;;;4987621;28;20112;-75
2023/03/30 01:09:12;;;;;;;3.67;2.60;;;7.30;99.90;;;;;;4984847;28;20129;-75
2023/03/30 01:11:39;;;;;;;3.40;2.50;;;7.30;99.90;;;;;;4978633;28;20474;-75
2023/03/30 01:14:07;;;;;;;3.97;2.65;;;7.30;99.90;;;;;;4981276;28;20034;-75
2023/03/30 01:16:43;;;;;;;7.88;3.03;;;7.30;99.90;;;;;;4999098;28;20481;-75
2023/03/30 01:19:28;;;;;;;8.38;2.80;;;7.30;99.90;;;;;;4984110;28;20422;-75
2023/03/30 01:22:23;;;;;;;3.75;2.53;;;7.30;99.90;;;;;;4988775;28;20049;-76
2023/03/30 01:25:10;;;;;;;4.93;2.75;;;7.30;99.90;;;;;;4983706;28;20058;-76
2023/03/30 01:27:45;;;;;;;4.32;3.15;;;7.30;99.90;;;;;;4983900;28;20046;-75
2023/03/30 01:30:29;;;;;;;3.55;3.17;;;7.20;99.90;;;;;;4989420;28;20055;-75
2023/03/30 01:33:29;;;;;;;3.67;2.45;;;7.20;99.90;;;;;;4994222;28;20092;-75
2023/03/30 01:36:56;;;;;;;3.13;2.47;;;7.10;99.90;;;;;;4986924;28;20038;-76
2023/03/30 01:39:28;;;;;;;3.63;2.58;;;7.10;99.90;;;;;;4902181;29;20181;-76
2023/03/30 01:42:17;;;;;;;3.55;2.50;;;7.10;99.90;;;;;;4918791;29;20044;-76
2023/03/30 01:44:59;;;;;;;3.78;2.28;;;7.10;99.90;;;;;;4970657;28;20136;-75
2023/03/30 01:47:43;;;;;;;4.28;3.00;;;7.10;99.90;;;;;;4984936;28;20739;-75
2023/03/30 01:50:40;;;;;;;3.65;2.42;;;7.10;99.90;;;;;;4988350;28;20052;-75
2023/03/30 01:53:09;;;;;;;3.85;2.75;;;7.10;99.90;;;;;;4974467;28;20130;-75
2023/03/30 01:55:44;;;;;;;3.38;2.58;;;7.20;99.90;;;;;;4989926;28;20038;-75
2023/03/30 01:58:32;;;;;;;4.03;2.67;;;7.20;99.90;;;;;;4986141;28;20684;-76
2023/03/30 02:01:00;;;;;;;4.70;2.55;;;7.20;99.90;;;;;;4978512;28;20062;-76
2023/03/30 02:03:39;;;;;;;2.45;2.17;;;7.20;99.90;;;;;;4991218;28;20034;-76
2023/03/30 02:06:17;;;;;;;3.45;2.60;;;7.20;99.90;;;;;;4985060;28;20068;-76
2023/03/30 02:08:45;;;;;;;4.15;2.08;;;7.20;99.90;;;;;;4987116;28;20121;-75
2023/03/30 02:11:11;;;;;;;2.35;1.48;;;7.20;99.90;;;;;;4992955;28;20457;-76
2023/03/30 02:13:39;;;;;;;2.88;1.60;;;7.20;99.90;;;;;;4988852;28;20165;-76
2023/03/30 02:16:17;;;;;;;2.20;1.50;;;7.10;99.90;;;;;;4985784;28;20026;-67
2023/03/30 02:18:43;;;;;;;1.88;1.38;;;7.10;99.90;;;;;;4995494;28;20769;-67
2023/03/30 02:21:09;;;;;;;2.65;1.60;;;7.00;99.90;;;;;;4991930;28;20037;-67
2023/03/30 02:23:41;;;;;;;1.58;1.35;;;7.10;99.90;;;;;;4994757;28;20041;-67
2023/03/30 02:26:07;;;;;;;1.75;1.30;;;7.10;99.90;;;;;;4982481;28;20047;-67
2023/03/30 02:28:34;;;;;;;1.98;1.50;;;7.10;99.90;;;;;;4974444;28;21651;-67
2023/03/30 02:31:00;;;;;;;1.92;1.45;;;7.10;99.90;;;;;;4978120;28;20641;-67
2023/03/30 02:33:34;;;;;;;1.38;1.10;;;7.20;99.90;;;;;;4988298;28;20136;-67
2023/03/30 02:36:15;;;;;;;1.77;1.13;;;7.20;99.90;;;;;;5005475;28;20483;-75
2023/03/30 02:39:13;;;;;;;4.03;1.58;;;7.10;99.90;;;;;;4993220;28;20046;-75
2023/03/30 02:42:17;;;;;;;2.25;1.50;;;7.00;99.90;;;;;;4983258;28;20061;-75
2023/03/30 02:45:20;;;;;;;2.55;1.70;;;7.00;99.90;;;;;;4988722;28;20038;-75
2023/03/30 02:48:05;;;;;;;1.88;1.10;;;7.00;99.90;;;;;;4979212;28;20053;-75
2023/03/30 02:50:37;;;;;;;3.42;2.22;;;7.00;99.90;;;;;;4982990;28;20041;-75
2023/03/30 02:53:23;;;;;;;2.35;1.35;;;6.90;99.90;;;;;;4981496;28;20115;-75
2023/03/30 02:56:11;;;;;;;2.00;1.50;;;6.90;99.90;;;;;;4995618;28;20026;-67
2023/03/30 02:58:52;;;;;;;3.60;1.73;;;6.90;99.90;;;;;;4992690;28;20034;-67
2023/03/30 03:01:31;;;;;;;2.13;1.20;;;6.80;99.90;;;;;;4995732;28;20125;-67
2023/03/30 03:03:58;;;;;;;1.75;1.15;;;6.60;99.90;;;;;;4972868;28;20097;-67
2023/03/30 03:06:25;;;;;;;2.50;1.40;;;6.50;99.90;;;;;;4991776;28;22559;-68
2023/03/30 03:08:53;;;;;;;3.40;1.40;;;6.50;99.90;;;;;;4985895;28;20041;-67
2023/03/30 03:11:19;;;;;;;2.95;2.22;;;6.40;99.90;;;;;;4999104;28;20064;-67
2023/03/30 03:13:45;;;;;;;1.70;1.30;;;6.40;99.90;;;;;;4998594;28;20042;-68
2023/03/30 03:16:11;;;;;;;2.58;1.00;;;6.50;99.90;;;;;;4997931;28;20104;-68
2023/03/30 03:18:43;;;;;;;3.15;1.20;;;6.60;99.90;;;;;;4993956;28;20044;-67
2023/03/30 03:21:10;;;;;;;1.45;1.10;;;6.70;99.90;;;;;;4991959;28;20502;-68
2023/03/30 03:23:36;;;;;;;2.03;1.38;;;6.60;99.90;;;;;;4990321;28;20128;-68
2023/03/30 03:26:03;;;;;;;1.88;1.30;;;6.70;99.90;;;;;;4993583;28;20042;-68
2023/03/30 03:28:30;;;;;;;3.60;1.70;;;6.60;99.90;;;;;;4996439;28;20043;-68
2023/03/30 03:30:57;;;;;;;1.30;1.20;;;6.60;99.90;;;;;;4996426;28;20116;-67
2023/03/30 03:33:23;;;;;;;5.25;1.58;;;6.60;99.90;;;;;;4995710;28;20217;-67
2023/03/30 03:35:52;;;;;;;2.88;2.03;;;6.60;99.90;;;;;;4993778;28;20044;-67
2023/03/30 03:38:23;;;;;;;2.40;1.42;;;6.60;99.90;;;;;;4996896;28;20918;-67
2023/03/30 03:40:50;;;;;;;2.53;1.55;;;6.60;99.90;;;;;;4991009;28;20111;-68
2023/03/30 03:43:16;;;;;;;1.30;1.05;;;6.50;99.90;;;;;;4992233;28;20041;-67
2023/03/30 03:45:43;;;;;;;2.22;1.17;;;6.50;99.90;;;;;;4999312;28;20045;-67
2023/03/30 03:48:08;;;;;;;2.00;1.05;;;6.40;99.90;;;;;;4997836;28;20030;-68
2023/03/30 03:50:34;;;;;;;2.58;1.10;;;6.40;99.90;;;;;;4996490;28;20092;-68
2023/03/30 03:53:00;;;;;;;2.08;1.77;;;6.40;99.90;;;;;;4993935;28;20032;-69
2023/03/30 03:55:28;;;;;;;4.35;1.00;;;6.50;99.90;;;;;;4993456;28;20044;-68
2023/03/30 03:57:54;;;;;;;2.08;0.95;;;6.50;99.90;;;;;;4993049;28;20042;-67
2023/03/30 04:00:21;;;;;;;3.67;1.10;;;6.50;99.90;;;;;;4991425;28;20399;-67
2023/03/30 04:02:47;;;;;;;1.88;1.20;;;6.60;99.90;;;;;;4986528;28;20049;-67
2023/03/30 04:05:12;;;;;;;2.70;1.40;;;6.60;99.90;;;;;;4988499;28;20042;-67
2023/03/30 04:07:38;;;;;;;1.92;1.30;;;6.60;99.90;;;;;;4992023;28;20133;-67
2023/03/30 04:10:06;;;;;;;2.45;1.90;;;6.60;99.90;;;;;;4991916;28;20058;-67
2023/03/30 04:12:31;;;;;;;5.78;3.15;;;6.70;99.90;;;;;;4998162;28;20034;-67
2023/03/30 04:14:57;;;;;;;4.38;3.50;;;6.80;99.90;;;;;;4995946;28;20533;-67
2023/03/30 04:17:23;;;;;;;2.58;2.15;;;6.80;99.90;;;;;;4994647;28;20439;-67
2023/03/30 04:19:55;;;;;;;3.53;1.75;;;6.80;99.90;;;;;;4993070;28;20030;-67
2023/03/30 04:22:24;;;;;;;2.55;1.42;;;6.80;99.90;;;;;;4986523;28;20050;-67
2023/03/30 04:24:51;;;;;;;1.80;1.60;;;6.80;99.90;;;;;;4997104;28;21008;-67
2023/03/30 04:27:17;;;;;;;1.70;1.40;;;6.80;99.90;;;;;;4989860;28;20046;-67
2023/03/30 04:29:43;;;;;;;2.17;1.48;;;6.70;99.90;;;;;;4979722;28;20572;-67
2023/03/30 04:32:12;;;;;;;2.33;1.60;;;6.70;99.90;;;;;;4996016;28;20102;-67
2023/03/30 04:34:41;;;;;;;2.65;1.40;;;6.70;99.90;;;;;;4993332;28;20056;-67
2023/03/30 04:37:09;;;;;;;2.45;1.30;;;6.70;99.90;;;;;;4988121;28;20026;-67
2023/03/30 04:39:34;;;;;;;1.70;1.48;;;6.70;99.90;;;;;;4993516;28;20038;-67
2023/03/30 04:42:05;;;;;;;1.92;1.25;;;6.70;99.90;;;;;;4995500;28;20038;-67
2023/03/30 04:44:30;;;;;;;1.92;1.75;;;6.70;99.90;;;;;;4988139;28;20132;-68
2023/03/30 04:46:56;;;;;;;3.10;1.45;;;6.70;99.90;;;;;;4976752;28;20045;-67
2023/03/30 04:49:22;;;;;;;1.92;1.40;;;6.70;99.90;;;;;;4996342;28;20038;-75
2023/03/30 04:51:48;;;;;;;3.33;2.00;;;6.80;99.90;;;;;;5000815;28;20126;-75
2023/03/30 04:54:13;;;;;;;5.45;2.22;;;6.80;99.90;;;;;;5003243;28;20534;-76
2023/03/30 04:56:39;;;;;;;5.55;2.60;;;6.80;99.90;;;;;;4989195;28;20033;-75
2023/03/30 04:59:05;;;;;;;4.90;2.58;;;6.80;99.90;;;;;;4996363;28;20125;-74
2023/03/30 05:01:31;;;;;;;3.78;2.85;;;6.80;99.90;;;;;;4997183;28;20117;-75
2023/03/30 05:03:57;;;;;;;3.50;2.78;;;6.90;99.90;;;;;;4997016;28;20129;-74
2023/03/30 05:06:23;;;;;;;3.90;2.95;;;6.90;99.90;;;;;;4992640;28;20038;-81
2023/03/30 05:08:48;;;;;;;3.70;2.97;;;6.90;99.90;;;;;;4989395;28;20578;-75
2023/03/30 05:11:14;;;;;;;3.78;2.95;;;7.00;99.90;;;;;;5008576;28;20125;-76
2023/03/30 05:13:40;;;;;;;4.88;3.20;;;7.00;99.90;;;;;;5008381;28;20026;-76
2023/03/30 05:16:07;;;;;;;4.82;3.80;;;7.00;99.90;;;;;;4992419;28;20044;-76
2023/03/30 05:18:32;;;;;;;8.77;3.75;;;7.00;99.90;;;;;;5008111;28;20414;-76
2023/03/30 05:20:59;;;;;;;5.18;3.88;;;7.10;99.90;;;;;;5006873;28;20679;-74
2023/03/30 05:23:25;;;;;;;3.95;3.22;;;7.20;99.90;;;;;;5001434;28;20100;-76
2023/03/30 05:25:51;;;;;;;5.35;3.47;;;7.20;99.90;;;;;;4998678;28;20803;-73
2023/03/30 05:28:17;;;;;;;5.43;4.15;;;7.30;99.90;;;;;;5000930;28;20121;-76
2023/03/30 05:30:45;;;;;;;26.30;16.65;;;7.40;99.90;;;;;;5000167;28;20038;-73
2023/03/30 05:33:11;;;;;;;23.40;14.38;;;7.50;99.90;;;;;;4997122;28;20491;-72
2023/03/30 05:35:37;;;;;;;9.63;5.70;;;7.50;99.90;;;;;;4996326;28;20066;-75
2023/03/30 05:38:03;;;;;;;7.85;6.22;;;7.60;99.90;;;;;;4995627;28;20112;-75
2023/03/30 05:40:30;;;;;;;9.23;4.70;;;7.60;99.90;;;;;;4993263;28;20065;-75
2023/03/30 05:42:55;;;;;;;7.05;5.22;;;7.60;99.90;;;;;;4995115;28;20050;-76
2023/03/30 05:45:21;;;;;;;8.30;5.78;;;7.60;99.90;;;;;;4999908;28;20852;-74
2023/03/30 05:47:47;;;;;;;7.93;5.40;;;7.70;99.90;;;;;;4997520;28;20151;-73
2023/03/30 05:50:13;;;;;;;8.82;4.88;;;7.70;99.90;;;;;;4993877;28;20034;-74
2023/03/30 05:52:38;;;;;;;11.57;4.32;;;7.80;99.90;;;;;;4994351;28;20037;-73
2023/03/30 05:55:05;;;;;;;4.45;4.05;;;7.80;99.90;;;;;;4996513;28;20383;-72
2023/03/30 05:57:32;;;;;;;6.20;4.18;;;7.80;99.90;;;;;;4993759;28;21385;-76
2023/03/30 05:59:58;;;;;;;5.22;3.53;;;7.70;99.90;;;;;;4997207;28;20034;-76
2023/03/30 06:02:24;;;;;;;6.40;3.40;;;7.60;99.90;;;;;;4996057;28;20033;-75
2023/03/30 06:04:49;;;;;;;6.13;4.22;;;7.60;99.90;;;;;;4995046;28;20046;-69
2023/03/30 06:07:16;;;;;;;5.47;4.15;;;7.70;99.90;;;;;;4995777;28;20042;-76
2023/03/30 06:09:42;;;;;;;6.93;4.45;;;7.80;99.90;;;;;;4995195;28;20052;-74
2023/03/30 06:12:08;;;;;;;7.00;4.90;;;8.00;99.90;;;;;;4995661;28;20045;-74
2023/03/30 06:14:34;;;;;;;10.00;4.68;;;8.20;99.90;;;;;;4996796;28;20061;-74
2023/03/30 06:17:00;;;;;;;9.73;5.50;;;8.50;99.90;;;;;;4998741;28;20038;-75
2023/03/30 06:19:26;;;;;;;6.25;4.63;;;8.70;99.90;;;;;;4998037;28;20030;-75
2023/03/30 06:21:52;;;;;;;11.15;5.13;;;8.80;99.90;;;;;;5001086;28;20042;-75
2023/03/30 06:24:19;;;;;;;8.07;5.40;;;9.00;99.90;;;;;;4978811;28;20112;-75
2023/03/30 06:26:45;;;;;;;7.75;4.82;;;9.00;99.90;;;;;;4996375;28;20033;-76
2023/03/30 06:29:10;;;;;;;77.65;59.60;;;9.00;99.90;;;;;;4995377;28;20038;-76
2023/03/30 06:31:36;;;;;;;10.90;8.10;;;9.00;99.90;;;;;;4993673;28;20771;-76
2023/03/30 06:34:02;;;;;;;7.07;6.20;;;9.10;99.90;;;;;;4998311;28;20022;-75
2023/03/30 06:36:27;;;;;;;6.88;5.25;;;9.00;99.90;;;;;;4973289;28;20056;-76
2023/03/30 06:38:53;;;;;;;8.23;4.82;;;9.00;99.90;;;;;;4998828;28;20065;-75
2023/03/30 06:41:19;;;;;;;8.07;5.65;;;9.00;99.90;;;;;;5000022;28;20072;-75
2023/03/30 06:43:44;;;;;;;29.73;20.95;;;8.90;99.90;;;;;;5000052;28;20490;-69
2023/03/30 06:46:11;;;;;;;7.07;6.18;;;9.00;99.90;;;;;;5001913;28;20158;-68
2023/03/30 06:48:37;;;;;;;9.93;6.20;;;9.00;99.90;;;;;;4999708;28;20026;-70
2023/03/30 06:51:03;;;;;;;14.10;8.98;;;9.00;99.90;;;;;;4978678;28;20042;-69
2023/03/30 06:53:29;;;;;;;7.13;5.40;;;9.10;99.90;;;;;;5000063;28;20118;-69
2023/03/30 06:55:56;;;;;;;9.38;6.03;;;9.20;99.90;;;;;;4975057;28;20888;-69
2023/03/30 06:58:24;;;;;;;10.80;6.28;;;9.20;99.90;;;;;;4992324;28;20062;-69
2023/03/30 07:00:50;;;;;;;18.45;12.95;;;9.20;99.90;;;;;;4992925;28;20038;-69
2023/03/30 07:03:17;;;;;;;17.98;10.70;;;9.20;99.90;;;;;;4988953;28;20029;-70
2023/03/30 07:05:47;;;;;;;6.93;5.18;;;9.30;99.90;;;;;;4992939;28;20081;-69
2023/03/30 07:08:13;;;;;;;8.65;5.50;;;9.30;99.90;;;;;;4991207;28;20085;-69
2023/03/30 07:10:39;;;;;;;8.52;5.25;;;9.40;99.90;;;;;;4996457;28;20042;-67
2023/03/30 07:13:06;;;;;;;20.58;7.78;;;9.50;99.90;;;;;;4993317;28;20047;-68
2023/03/30 07:15:32;;;;;;;19.40;5.60;;;9.50;99.90;;;;;;4996556;28;20089;-68
2023/03/30 07:17:58;;;;;;;7.78;5.18;;;9.50;99.90;;;;;;4992141;28;20046;-68
2023/03/30 07:20:23;;;;;;;7.30;5.00;;;9.50;99.90;;;;;;5000320;28;20137;-75
2023/03/30 07:22:49;;;;;;;11.32;5.28;;;9.60;99.90;;;;;;4997954;28;20038;-74
2023/03/30 07:25:15;;;;;;;6.82;4.60;;;9.70;99.90;;;;;;4994282;28;20054;-74
2023/03/30 07:27:41;;;;;;;7.25;5.30;;;9.70;99.90;;;;;;4995376;28;20041;-72
2023/03/30 07:30:08;;;;;;;7.60;5.10;;;9.60;99.90;;;;;;4999335;28;20092;-74
2023/03/30 07:32:35;;;;;;;9.35;4.65;;;9.50;99.90;;;;;;4996906;28;20057;-71
2023/03/30 07:35:00;;;;;;;15.80;4.93;;;9.50;99.90;;;;;;4998699;28;20038;-75
2023/03/30 07:37:27;;;;;;;5.80;4.85;;;9.50;99.90;;;;;;4995437;28;20078;-75
2023/03/30 07:39:54;;;;;;;10.13;4.50;;;9.60;99.90;;;;;;4982095;28;20034;-74
2023/03/30 07:42:20;;;;;;;11.40;4.60;;;9.50;99.90;;;;;;4997737;28;20897;-75
2023/03/30 07:44:46;;;;;;;9.32;4.95;;;9.60;99.90;;;;;;4995057;28;20073;-73
2023/03/30 07:47:12;;;;;;;6.55;5.15;;;9.60;99.80;;;;;;4994613;28;20069;-74
2023/03/30 07:49:37;;;;;;;14.15;9.02;;;9.60;99.50;;;;;;4999563;28;20045;-75
2023/03/30 07:52:03;;;;;;;9.00;5.43;;;9.50;99.90;;;;;;4997093;28;20030;-74
2023/03/30 07:54:29;;;;;;;8.85;6.50;;;9.50;99.90;;;;;;4993059;28;20037;-75
2023/03/30 07:56:55;;;;;;;8.82;5.60;;;9.60;99.90;;;;;;5000391;28;20038;-75
2023/03/30 07:59:22;;;;;;;8.25;5.40;;;9.50;99.70;;;;;;4983365;28;20122;-68
2023/03/30 08:01:53;;;;;;;8.27;5.15;;;9.50;99.90;;;;;;4999596;28;20607;-68
2023/03/30 08:04:20;;;;;;;7.80;5.50;;;9.40;99.70;;;;;;4997947;28;20041;-69
2023/03/30 08:06:46;;;;;;;7.45;4.80;;;9.50;99.70;;;;;;4996162;28;20081;-69
2023/03/30 08:09:12;;;;;;;7.90;5.32;;;9.50;99.40;;;;;;4993273;28;20027;-68
2023/03/30 08:11:38;;;;;;;11.90;5.32;;;9.60;99.40;;;;;;4979154;28;20109;-69
2023/03/30 08:14:04;;;;;;;7.57;5.57;;;9.70;99.70;;;;;;4990886;28;20026;-68
2023/03/30 08:16:30;;;;;;;8.57;5.43;;;9.70;99.00;;;;;;4995421;28;20035;-68
2023/03/30 08:18:56;;;;;;;13.20;5.50;;;9.70;99.20;;;;;;4977721;28;20042;-68
2023/03/30 08:21:24;;;;;;;7.75;5.22;;;9.70;99.10;;;;;;4995536;28;20051;-69
2023/03/30 08:23:51;;;;;;;7.90;5.30;;;9.80;99.10;;;;;;4995251;28;20037;-69
2023/03/30 08:26:16;;;;;;;6.47;5.13;;;9.80;99.20;;;;;;4994282;28;20076;-69
2023/03/30 08:28:42;;;;;;;10.23;5.25;;;9.90;98.80;;;;;;4993752;28;20038;-68
2023/03/30 08:31:11;;;;;;;8.38;5.70;;;9.90;98.70;;;;;;4998551;28;20113;-68
2023/03/30 08:33:38;;;;;;;8.90;4.82;;;10.00;98.90;;;;;;4996940;28;20042;-68
2023/03/30 08:36:04;;;;;;;10.45;5.85;;;10.00;99.60;;;;;;4996470;28;20022;-68
2023/03/30 08:38:30;;;;;;;10.48;5.68;;;10.00;99.20;;;;;;4981254;28;20139;-68
2023/03/30 08:40:56;;;;;;;7.40;5.53;;;10.00;99.30;;;;;;4992579;28;20072;-68
2023/03/30 08:43:42;;;;;;;8.75;5.82;;;9.90;99.90;;;;;;4991224;28;20034;-68
2023/03/30 08:46:14;;;;;;;10.60;5.97;;;9.90;99.90;;;;;;4992360;28;20058;-68
2023/03/30 08:48:41;;;;;;;10.30;5.65;;;10.00;99.70;;;;;;4998122;28;20029;-67
2023/03/30 08:51:26;;;;;;;8.82;5.57;;;10.00;99.60;;;;;;4995360;28;20124;-68
2023/03/30 08:54:00;;;;;;;8.95;5.20;;;10.10;99.30;;;;;;4995246;28;20022;-68
2023/03/30 08:56:38;;;;;;;8.90;5.25;;;10.10;99.00;;;;;;4995939;28;20100;-72
2023/03/30 08:59:39;;;;;;;7.70;5.00;;;10.10;99.10;;;;;;4999041;28;20046;-76
2023/03/30 09:02:29;;;;;;;8.77;5.38;;;10.10;98.90;;;;;;4996095;28;20030;-75
2023/03/30 09:05:04;;;;;;;10.93;5.70;;;10.10;99.30;;;;;;4977579;28;20045;-75
2023/03/30 09:07:35;;;;;;;6.30;4.68;;;10.00;98.80;;;;;;5000339;28;20034;-77
2023/03/30 09:10:03;;;;;;;16.08;5.93;;;9.90;99.10;;;;;;4995042;28;20061;-74
2023/03/30 09:12:44;;;;;;;16.35;10.40;;;9.70;99.90;;;;;;4978541;28;20069;-78
2023/03/30 09:15:30;;;;;;;11.85;6.20;;;9.90;99.80;;;;;;4977762;28;20120;-76
2023/03/30 09:18:20;;;;;;;11.43;5.40;;;9.90;99.90;;;;;;4994667;28;20090;-70
2023/03/30 09:20:47;;;;;;;8.65;5.55;;;9.90;99.90;;;;;;4994628;28;20061;-69
2023/03/30 09:23:16;;;;;;;8.60;5.60;;;10.10;99.90;;;;;;4990416;28;20038;-69
2023/03/30 09:26:01;;;;;;;8.15;5.70;;;10.10;99.80;;;;;;4988159;28;20108;-68
2023/03/30 09:28:56;;;;;;;11.60;8.20;;;10.10;99.80;;;;;;4998799;28;20034;-69
2023/03/30 09:31:44;;;;;;;16.33;10.50;;;10.10;99.50;;;;;;4993035;28;20096;-68
2023/03/30 09:34:46;;;;;;;12.75;7.63;;;10.20;99.90;;;;;;4988343;28;20036;-69
2023/03/30 09:37:17;;;;;;;10.13;6.45;;;10.30;99.90;;;;;;4993844;28;20041;-68
2023/03/30 09:39:44;;;;;;;11.57;7.50;;;10.50;99.40;;;;;;4992996;28;20034;-69
2023/03/30 09:42:32;;;;;;;8.88;6.15;;;10.60;98.90;;;;;;4995645;28;20042;-69
2023/03/30 09:45:26;;;;;;;9.25;6.30;;;10.70;98.70;;;;;;4993227;28;20041;-68
2023/03/30 09:47:52;;;;;;;11.98;8.07;;;10.70;98.70;;;;;;4997357;28;20671;-68
2023/03/30 09:50:23;;;;;;;10.60;6.57;;;10.80;98.80;;;;;;4992732;28;20061;-69
2023/03/30 09:53:18;;;;;;;11.18;8.20;;;10.90;98.50;;;;;;4996691;28;20034;-75
2023/03/30 09:55:56;;;;;;;14.30;9.63;;;10.90;98.90;;;;;;4997440;28;20042;-76
2023/03/30 09:58:27;;;;;;;14.23;9.18;;;10.90;98.90;;;;;;4993212;28;20543;-77
2023/03/30 10:01:11;;;;;;;10.25;7.63;;;11.00;98.60;;;;;;4995187;28;20037;-76
2023/03/30 10:03:38;;;;;;;11.40;7.07;;;11.00;98.60;;;;;;4993780;28;20095;-76
2023/03/30 10:06:14;;;;;;;11.32;7.65;;;11.00;98.40;;;;;;4992327;28;20108;-76
2023/03/30 10:08:49;;;;;;;10.43;7.72;;;11.00;98.40;;;;;;4999254;28;20049;-75
2023/03/30 10:11:30;;;;;;;10.30;6.30;;;11.00;98.90;;;;;;4997729;28;20042;-76
2023/03/30 10:13:58;;;;;;;11.68;6.78;;;11.10;98.60;;;;;;4990967;28;20884;-76
2023/03/30 10:16:26;;;;;;;7.35;5.35;;;11.20;98.50;;;;;;4996708;28;20810;-75
2023/03/30 10:18:56;;;;;;;8.63;5.90;;;11.20;98.40;;;;;;5000651;28;20742;-76
2023/03/30 10:21:26;;;;;;;8.10;5.68;;;11.30;98.40;;;;;;4994973;28;20041;-76
2023/03/30 10:24:17;;;;;;;18.27;5.60;;;11.30;97.70;;;;;;5000957;28;20030;-77
2023/03/30 10:26:49;;;;;;;9.38;6.47;;;11.30;97.60;;;;;;4994769;28;20049;-75
2023/03/30 10:29:21;;;;;;;;;;;11.40;97.80;;;;;;4999246;28;20446;-75
2023/03/30 10:31:49;;;;;;;12.30;5.80;;;11.40;97.60;;;;;;4997897;28;20048;-76
2023/03/30 10:34:38;;;;;;;10.15;6.38;;;11.50;97.20;;;;;;4993821;28;20105;-74
2023/03/30 10:37:18;;;;;;;9.68;5.95;;;11.50;97.90;;;;;;4985350;28;20044;-76
2023/03/30 10:39:47;;;;;;;13.25;6.57;;;11.60;97.00;;;;;;4998332;28;20049;-76
2023/03/30 10:42:19;;;;;;;10.88;6.38;;;11.50;96.50;;;;;;4995079;28;20049;-75
2023/03/30 10:44:53;;;;;;;8.80;6.75;;;11.50;96.60;;;;;;4994351;28;20058;-75
2023/03/30 10:47:39;;;;;;;9.30;6.28;;;11.50;96.50;;;;;;5002660;28;20115;-75
2023/03/30 10:50:15;;;;;;;17.80;9.20;;;11.60;96.90;;;;;;5002821;28;20046;-76
2023/03/30 10:53:17;;;;;;;10.50;6.55;;;11.70;97.00;;;;;;4993366;28;20399;-75
2023/03/30 10:56:15;;;;;;;11.43;6.65;;;11.70;96.20;;;;;;4993290;28;20069;-76
2023/03/30 10:59:05;;;;;;;11.70;6.70;;;11.60;96.20;;;;;;5000328;28;20267;-76
2023/03/30 11:01:31;;;;;;;8.68;5.93;;;11.60;96.70;;;;;;5001356;28;20033;-75
2023/03/30 11:04:06;;;;;;;15.35;8.55;;;11.60;96.40;;;;;;5000631;28;20037;-76
2023/03/30 11:06:37;;;;;;;9.35;6.75;;;11.60;96.10;;;;;;4996981;28;20487;-76
2023/03/30 11:09:04;;;;;;;9.07;6.77;;;11.60;96.50;;;;;;4994275;28;20587;-75
2023/03/30 11:11:37;;;;;;;9.55;6.05;;;11.60;96.60;;;;;;4997624;28;20397;-74
2023/03/30 11:14:12;;;;;;;11.13;6.55;;;11.60;96.50;;;;;;4993631;28;20074;-75
2023/03/30 11:16:52;;;;;;;11.70;6.38;;;11.60;96.40;;;;;;4980780;28;20092;-75
2023/03/30 11:19:40;;;;;;;9.80;6.65;;;11.60;96.70;;;;;;4983165;28;20164;-75
2023/03/30 11:22:24;;;;;;;9.73;5.85;;;11.70;96.30;;;;;;5000558;28;20095;-74
2023/03/30 11:24:53;;;;;;;9.65;6.18;;;11.80;96.80;;;;;;4985461;28;20046;-75
2023/03/30 11:27:32;;;;;;;11.15;6.18;;;11.90;96.80;;;;;;4981763;28;20498;-74
2023/03/30 11:30:04;;;;;;;13.68;7.40;;;12.00;96.60;;;;;;4979736;28;20041;-77
2023/03/30 11:32:52;;;;;;;11.48;6.72;;;12.10;96.30;;;;;;4991602;28;20029;-76
2023/03/30 11:35:49;;;;;;;14.60;9.07;;;12.20;96.30;;;;;;4999656;28;20033;-77
2023/03/30 11:38:41;;;;;;;11.02;6.63;;;12.30;96.40;;;;;;4997474;28;20038;-75
2023/03/30 11:41:19;;;;;;;10.80;6.40;;;12.40;95.50;;;;;;4976036;28;21683;-77
2023/03/30 11:43:45;;;;;;;8.32;6.00;;;12.40;95.20;;;;;;4984672;28;20034;-77
2023/03/30 11:46:29;;;;;;;10.23;6.70;;;12.40;95.20;;;;;;4998276;28;20064;-77
2023/03/30 11:49:20;;;;;;;10.35;6.93;;;12.40;95.20;;;;;;4998999;28;20034;-76
2023/03/30 11:52:04;;;;;;;9.60;6.38;;;12.30;95.00;;;;;;4994903;28;20509;-76
2023/03/30 11:54:57;;;;;;;9.98;6.20;;;12.40;95.80;;;;;;4991093;28;20042;-76
2023/03/30 11:57:34;;;;;;;8.68;6.45;;;12.60;94.90;;;;;;4998882;28;20025;-77
2023/03/30 12:00:27;;;;;;;10.30;6.10;;;12.60;94.60;;;;;;4996460;28;20041;-76
2023/03/30 12:03:21;;;;;;;12.13;6.25;;;12.60;94.50;;;;;;4988077;28;20038;-75
2023/03/30 12:05:58;;;;;;;8.85;5.20;;;12.60;94.20;;;;;;4975837;28;20058;-76
2023/03/30 12:08:36;;;;;;;12.80;5.88;;;12.60;94.00;;;;;;4984421;28;25560;-75
2023/03/30 12:11:12;;;;;;;7.15;5.40;;;12.60;94.10;;;;;;4989255;28;20065;-74
2023/03/30 12:13:38;;;;;;;11.88;6.35;;;12.70;94.10;;;;;;4987343;28;20084;-75
2023/03/30 12:16:09;;;;;;;10.25;7.57;;;12.70;94.00;;;;;;4970672;28;20069;-75
2023/03/30 12:19:09;;;;;;;9.47;6.87;;;12.80;94.60;;;;;;4981826;28;20034;-74
2023/03/30 12:22:12;;;;;;;13.88;5.80;;;12.90;94.30;;;;;;4971424;28;20104;-74
2023/03/30 12:24:49;;;;;;;10.38;6.32;;;13.00;94.20;;;;;;4989057;28;20053;-75
2023/03/30 12:27:15;;;;;;;13.05;5.90;;;13.00;93.70;;;;;;4985327;28;20032;-69
2023/03/30 12:29:48;;;;;;;8.48;5.93;;;13.00;93.80;;;;;;4988520;28;20030;-68
2023/03/30 12:32:21;;;;;;;7.45;5.82;;;13.00;93.70;;;;;;4993968;28;20052;-68
2023/03/30 12:34:47;;;;;;;14.00;6.88;;;13.00;94.00;;;;;;4995882;28;20556;-69
2023/03/30 12:37:22;;;;;;;9.50;6.43;;;13.00;93.90;;;;;;4979223;28;20152;-68
2023/03/30 12:40:11;;;;;;;9.07;5.25;;;13.00;93.90;;;;;;4997061;28;20038;-68
2023/03/30 12:42:45;;;;;;;24.80;15.77;;;13.00;94.10;;;;;;4995110;28;20525;-68
2023/03/30 12:45:36;;;;;;;78.38;48.78;;;12.90;94.40;;;;;;4999200;28;20290;-76
2023/03/30 12:48:30;;;;;;;9.27;7.38;;;12.90;94.70;;;;;;4989901;28;20061;-68
2023/03/30 12:51:23;;;;;;;14.75;7.63;;;13.00;94.10;;;;;;4993454;28;20498;-69
2023/03/30 12:54:00;;;;;;;10.00;6.75;;;12.90;94.50;;;;;;4986752;28;20041;-69
2023/03/30 12:56:48;;;;;;;13.02;10.15;;;12.90;94.70;;;;;;4991834;28;20431;-68
2023/03/30 12:59:31;;;;;;;9.98;6.93;;;13.00;94.70;;;;;;4991720;28;20045;-68
2023/03/30 13:02:27;;;;;;;11.38;7.35;;;13.00;94.50;;;;;;4993703;28;20034;-68
2023/03/30 13:04:53;;;;;;;10.40;6.97;;;13.00;94.50;;;;;;4995159;28;20990;-76
2023/03/30 13:07:25;;;;;;;10.60;6.75;;;13.00;94.70;;;;;;4991296;28;20121;-77
2023/03/30 13:09:53;;;;;;;12.48;6.28;;;13.00;95.30;;;;;;4981796;28;20486;-76
2023/03/30 13:12:30;;;;;;;11.68;6.15;;;13.00;95.50;;;;;;4989111;28;20485;-75
2023/03/30 13:15:02;;;;;;;12.95;5.97;;;13.00;95.30;;;;;;4996974;28;20038;-76
2023/03/30 13:17:46;;;;;;;;;;;13.00;95.40;;;;;;4995782;28;20104;-75